createdAt,value
2023-03-05T00:01:33.465Z,-2.11
2023-03-05T00:04:03.942Z,-2.13
2023-03-05T00:06:33.096Z,-2.14
2023-03-05T00:09:01.691Z,-2.15
2023-03-05T00:11:31.720Z,-2.26
2023-03-05T00:14:01.450Z,-2.17
2023-03-05T00:16:30.540Z,-2.19
2023-03-05T00:19:00.251Z,-2.20
2023-03-05T00:21:31.690Z,-2.38
2023-03-05T00:24:01.583Z,-2.25
2023-03-05T00:26:29.751Z,-2.26
2023-03-05T00:28:59.186Z,-2.48
2023-03-05T00:31:31.078Z,-2.39
2023-03-05T00:34:03.729Z,-2.58
2023-03-05T00:36:33.210Z,-2.74
2023-03-05T00:39:01.343Z,-2.37
2023-03-05T00:41:29.360Z,-2.40
2023-03-05T00:43:57.292Z,-2.32
2023-03-05T00:46:27.487Z,-2.33
2023-03-05T00:48:55.969Z,-2.36
2023-03-05T00:51:24.648Z,-2.37
2023-03-05T00:53:54.135Z,-2.40
2023-03-05T00:56:22.552Z,-2.44
2023-03-05T00:58:50.492Z,-2.46
2023-03-05T01:01:18.450Z,-2.56
2023-03-05T01:03:46.704Z,-2.49
2023-03-05T01:06:16.533Z,-2.63
2023-03-05T01:08:44.783Z,-2.52
2023-03-05T01:11:14.378Z,-2.52
2023-03-05T01:13:42.766Z,-2.68
2023-03-05T01:16:11.314Z,-2.60
2023-03-05T01:18:39.700Z,-2.54
2023-03-05T01:21:07.822Z,-2.72
2023-03-05T01:23:37.458Z,-2.54
2023-03-05T01:26:06.597Z,-2.58
2023-03-05T01:28:38.175Z,-2.79
2023-03-05T01:31:09.155Z,-2.62
2023-03-05T01:33:37.313Z,-2.66
2023-03-05T01:36:09.081Z,-2.68
2023-03-05T01:38:37.004Z,-2.68
2023-03-05T01:41:05.066Z,-2.70
2023-03-05T01:43:33.287Z,-2.78
2023-03-05T01:46:36.821Z,-2.87
2023-03-05T01:49:10.181Z,-2.77
2023-03-05T01:51:42.090Z,-2.84
2023-03-05T01:54:12.788Z,-2.92
2023-03-05T01:56:42.180Z,-2.83
2023-03-05T01:59:10.515Z,-2.82
2023-03-05T02:01:42.521Z,-3.23
2023-03-05T02:04:14.761Z,-2.83
2023-03-05T02:06:44.295Z,-2.84
2023-03-05T02:09:12.584Z,-3.08
2023-03-05T02:11:41.084Z,-2.88
2023-03-05T02:14:10.503Z,-3.12
2023-03-05T02:16:40.239Z,-2.91
2023-03-05T02:19:09.965Z,-3.02
2023-03-05T02:21:41.184Z,-3.82
2023-03-05T02:24:12.699Z,-2.99
2023-03-05T02:26:40.757Z,-3.04
2023-03-05T02:29:11.860Z,-3.25
2023-03-05T02:31:40.183Z,-3.03
2023-03-05T02:34:08.217Z,-3.04
2023-03-05T02:36:36.144Z,-3.38
2023-03-05T02:39:05.863Z,-3.24
2023-03-05T02:41:33.891Z,-3.24
2023-03-05T02:44:02.007Z,-3.11
2023-03-05T02:46:30.088Z,-3.12
2023-03-05T02:48:57.974Z,-3.23
2023-03-05T02:51:25.843Z,-3.14
2023-03-05T02:53:53.800Z,-3.24
2023-03-05T02:56:23.143Z,-3.15
2023-03-05T02:58:50.995Z,-3.17
2023-03-05T03:01:19.095Z,-3.19
2023-03-05T03:03:47.110Z,-3.18
2023-03-05T03:06:15.118Z,-3.34
2023-03-05T03:08:43.024Z,-3.36
2023-03-05T03:11:13.397Z,-3.23
2023-03-05T03:13:42.847Z,-3.30
2023-03-05T03:16:13.686Z,-3.25
2023-03-05T03:18:41.799Z,-3.29
2023-03-05T03:21:09.709Z,-3.29
2023-03-05T03:23:37.807Z,-3.40
2023-03-05T03:26:05.919Z,-3.31
2023-03-05T03:28:33.772Z,-3.32
2023-03-05T03:31:03.279Z,-3.34
2023-03-05T03:33:31.120Z,-3.34
2023-03-05T03:35:59.049Z,-3.35
2023-03-05T03:38:27.280Z,-3.44
2023-03-05T03:40:55.075Z,-3.38
2023-03-05T03:43:23.089Z,-3.51
2023-03-05T03:45:51.182Z,-3.40
2023-03-05T03:48:20.370Z,-3.43
2023-03-05T03:50:48.313Z,-3.74
2023-03-05T03:53:17.619Z,-3.57
2023-03-05T03:55:46.525Z,-3.46
2023-03-05T03:58:14.448Z,-3.46
2023-03-05T04:00:42.949Z,-3.56
2023-03-05T04:03:10.973Z,-3.71
2023-03-05T04:05:40.165Z,-3.48
2023-03-05T04:08:12.172Z,-3.49
2023-03-05T04:10:40.132Z,-4.17
2023-03-05T04:13:08.335Z,-3.50
2023-03-05T04:15:36.575Z,-3.49
2023-03-05T04:18:04.576Z,-3.48
2023-03-05T04:20:32.418Z,-3.49
2023-03-05T04:23:01.915Z,-3.49
2023-03-05T04:25:29.804Z,-3.49
2023-03-05T04:27:57.612Z,-3.50
2023-03-05T04:30:25.752Z,-3.52
2023-03-05T04:32:53.659Z,-3.51
2023-03-05T04:35:21.778Z,-3.52
2023-03-05T04:37:49.898Z,-3.53
2023-03-05T04:40:19.846Z,-3.54
2023-03-05T04:42:47.737Z,-3.55
2023-03-05T04:45:17.323Z,-3.55
2023-03-05T04:47:45.193Z,-3.57
2023-03-05T04:50:14.463Z,-3.71
2023-03-05T04:52:43.523Z,-3.57
2023-03-05T04:55:12.835Z,-3.57
2023-03-05T04:57:42.652Z,-3.59
2023-03-05T05:00:14.475Z,-3.59
2023-03-05T05:02:42.998Z,-3.59
2023-03-05T05:05:13.320Z,-4.04
2023-03-05T05:07:41.261Z,-3.62
2023-03-05T05:10:11.269Z,-3.84
2023-03-05T05:12:39.359Z,-3.66
2023-03-05T05:15:10.308Z,-3.80
2023-03-05T05:17:38.263Z,-3.66
2023-03-05T05:20:07.855Z,-4.10
2023-03-05T05:22:36.357Z,-3.66
2023-03-05T05:25:05.187Z,-3.76
2023-03-05T05:27:33.025Z,-3.68
2023-03-05T05:30:01.223Z,-3.69
2023-03-05T05:32:30.938Z,-3.86
2023-03-05T05:34:59.796Z,-4.03
2023-03-05T05:37:28.704Z,-3.70
2023-03-05T05:39:56.580Z,-3.95
2023-03-05T05:42:26.308Z,-3.71
2023-03-05T05:44:55.530Z,-3.69
2023-03-05T05:47:23.460Z,-3.70
2023-03-05T05:49:52.704Z,-3.70
2023-03-05T05:52:20.694Z,-3.68
2023-03-05T05:54:48.767Z,-3.72
2023-03-05T05:57:16.925Z,-3.64
2023-03-05T05:59:44.897Z,-3.60
2023-03-05T06:02:12.917Z,-3.55
2023-03-05T06:04:40.819Z,-3.56
2023-03-05T06:07:10.354Z,-3.57
2023-03-05T06:09:38.348Z,-3.64
2023-03-05T06:12:07.339Z,-3.48
2023-03-05T06:14:35.285Z,-3.46
2023-03-05T06:17:03.221Z,-3.43
2023-03-05T06:19:31.043Z,-3.56
2023-03-05T06:21:58.969Z,-3.36
2023-03-05T06:24:28.613Z,-3.41
2023-03-05T06:26:56.460Z,-3.25
2023-03-05T06:29:24.678Z,-3.29
2023-03-05T06:31:52.625Z,-3.29
2023-03-05T06:34:20.426Z,-3.09
2023-03-05T06:36:48.448Z,-2.92
2023-03-05T06:39:16.387Z,-2.66
2023-03-05T06:41:45.788Z,-2.36
2023-03-05T06:44:13.719Z,-2.05
2023-03-05T06:46:41.582Z,-1.83
2023-03-05T06:49:09.825Z,-1.69
2023-03-05T06:51:40.269Z,-1.58
2023-03-05T06:54:10.040Z,-1.69
2023-03-05T06:56:39.452Z,-1.61
2023-03-05T06:59:09.012Z,-1.64
2023-03-05T07:01:37.423Z,-1.75
2023-03-05T07:04:06.861Z,-1.59
2023-03-05T07:06:36.759Z,-1.56
2023-03-05T07:09:06.477Z,-1.55
2023-03-05T07:11:35.176Z,-1.32
2023-03-05T07:14:03.626Z,-0.91
2023-03-05T07:16:34.448Z,-0.40
2023-03-05T07:19:04.842Z,0.02
2023-03-05T07:21:36.883Z,0.40
2023-03-05T07:24:06.924Z,0.69
2023-03-05T07:26:38.145Z,1.03
2023-03-05T07:29:06.014Z,1.20
2023-03-05T07:31:35.599Z,1.50
2023-03-05T07:34:06.599Z,1.71
2023-03-05T07:36:35.157Z,1.93
2023-03-05T07:39:04.951Z,2.07
2023-03-05T07:41:33.153Z,2.18
2023-03-05T07:44:01.388Z,2.43
2023-03-05T07:46:32.139Z,2.68
2023-03-05T07:49:01.944Z,2.73
2023-03-05T07:51:29.973Z,3.12
2023-03-05T07:53:59.641Z,3.30
2023-03-05T07:56:31.822Z,3.52
2023-03-05T07:59:00.110Z,3.75
2023-03-05T08:01:30.315Z,4.04
2023-03-05T08:03:58.318Z,4.38
2023-03-05T08:06:27.592Z,4.57
2023-03-05T08:08:55.676Z,4.27
2023-03-05T08:11:23.741Z,4.09
2023-03-05T08:13:52.049Z,4.35
2023-03-05T08:16:22.205Z,4.69
2023-03-05T08:18:50.205Z,5.01
2023-03-05T08:21:19.847Z,5.32
2023-03-05T08:23:49.526Z,5.77
2023-03-05T08:26:20.528Z,6.10
2023-03-05T08:28:48.731Z,6.10
2023-03-05T08:31:18.017Z,6.04
2023-03-05T08:33:46.277Z,5.66
2023-03-05T08:36:14.369Z,5.39
2023-03-05T08:38:43.496Z,5.13
2023-03-05T08:41:12.914Z,4.81
2023-03-05T08:43:40.735Z,4.41
2023-03-05T08:46:09.552Z,4.07
2023-03-05T08:48:37.536Z,3.58
2023-03-05T08:51:09.401Z,3.30
2023-03-05T08:53:37.548Z,3.12
2023-03-05T08:56:05.827Z,2.92
2023-03-05T08:58:35.060Z,2.39
2023-03-05T09:01:02.940Z,2.21
2023-03-05T09:03:31.019Z,2.29
2023-03-05T09:06:02.007Z,2.21
2023-03-05T09:08:30.297Z,1.91
2023-03-05T09:10:58.354Z,2.26
2023-03-05T09:13:26.268Z,2.41
2023-03-05T09:15:59.722Z,2.47
2023-03-05T09:18:28.467Z,2.64
2023-03-05T09:20:56.603Z,2.85
2023-03-05T09:23:25.534Z,3.06
2023-03-05T09:25:53.411Z,3.21
2023-03-05T09:28:21.231Z,3.88
2023-03-05T09:30:49.367Z,3.96
2023-03-05T09:33:18.591Z,4.05
2023-03-05T09:35:48.318Z,4.77
2023-03-05T09:38:16.407Z,5.34
2023-03-05T09:40:53.140Z,5.92
2023-03-05T09:43:31.803Z,5.93
2023-03-05T09:46:07.903Z,5.55
2023-03-05T09:48:50.783Z,5.13
2023-03-05T09:51:24.325Z,4.66
2023-03-05T09:54:00.552Z,4.44
2023-03-05T09:56:33.293Z,4.43
2023-03-05T09:59:05.278Z,4.68
2023-03-05T10:01:39.895Z,4.75
2023-03-05T10:04:12.857Z,4.66
2023-03-05T10:06:49.899Z,4.41
2023-03-05T10:09:28.535Z,4.52
2023-03-05T10:12:00.302Z,4.63
2023-03-05T10:14:31.069Z,4.94
2023-03-05T10:17:36.609Z,5.57
2023-03-05T10:20:22.234Z,5.64
2023-03-05T10:23:02.533Z,5.88
2023-03-05T10:25:45.835Z,5.93
2023-03-05T10:28:20.213Z,6.50
2023-03-05T10:31:03.891Z,7.01
2023-03-05T10:33:39.768Z,7.32
2023-03-05T10:36:27.991Z,7.05
2023-03-05T10:39:32.646Z,6.44
2023-03-05T10:42:08.272Z,6.37
2023-03-05T10:44:41.610Z,6.27
2023-03-05T10:47:17.875Z,6.30
2023-03-05T10:49:51.419Z,6.68
2023-03-05T10:52:23.761Z,6.73
2023-03-05T10:54:51.596Z,6.70
2023-03-05T10:57:22.809Z,7.03
2023-03-05T10:59:53.520Z,6.71
2023-03-05T11:02:22.697Z,6.56
2023-03-05T11:04:51.538Z,6.36
2023-03-05T11:07:38.245Z,6.66
2023-03-05T11:10:15.966Z,7.09
2023-03-05T11:12:44.510Z,7.35
2023-03-05T11:15:31.277Z,7.15
2023-03-05T11:18:31.544Z,6.99
2023-03-05T11:21:10.058Z,7.12
2023-03-05T11:23:39.891Z,6.67
2023-03-05T11:26:22.522Z,7.49
2023-03-05T11:28:59.316Z,7.47
2023-03-05T11:31:29.141Z,7.87
2023-03-05T11:34:01.152Z,8.02
2023-03-05T11:36:31.946Z,7.91
2023-03-05T11:39:11.648Z,7.24
2023-03-05T11:41:42.265Z,7.23
2023-03-05T11:44:15.095Z,6.67
2023-03-05T11:46:45.915Z,6.49
2023-03-05T11:49:19.185Z,5.20
2023-03-05T11:51:54.709Z,4.58
2023-03-05T11:54:29.881Z,4.25
2023-03-05T11:56:57.851Z,3.74
2023-03-05T11:59:30.690Z,2.80
2023-03-05T12:01:59.578Z,3.02
2023-03-05T12:04:28.566Z,3.47
2023-03-05T12:07:00.588Z,3.70
2023-03-05T12:09:41.076Z,3.76
2023-03-05T12:12:19.793Z,3.67
2023-03-05T12:14:54.008Z,3.65
2023-03-05T12:17:29.049Z,3.61
2023-03-05T12:20:04.937Z,3.40
2023-03-05T12:22:37.379Z,3.33
2023-03-05T12:25:27.088Z,3.79
2023-03-05T12:27:55.437Z,4.16
2023-03-05T12:31:00.739Z,4.47
2023-03-05T12:33:37.216Z,4.70
2023-03-05T12:36:33.984Z,4.69
2023-03-05T12:39:02.281Z,4.65
2023-03-05T12:41:40.549Z,4.17
2023-03-05T12:44:26.409Z,3.63
2023-03-05T12:47:19.393Z,3.61
2023-03-05T12:49:50.296Z,3.67
2023-03-05T12:52:27.597Z,3.13
2023-03-05T12:55:18.982Z,3.47
2023-03-05T12:57:51.830Z,3.54
2023-03-05T13:00:26.827Z,3.83
2023-03-05T13:02:58.725Z,3.98
2023-03-05T13:05:31.080Z,3.92
2023-03-05T13:08:15.880Z,3.76
2023-03-05T13:10:45.062Z,3.67
2023-03-05T13:13:16.586Z,3.53
2023-03-05T13:15:47.688Z,3.55
2023-03-05T13:18:21.908Z,3.69
2023-03-05T13:20:56.300Z,3.73
2023-03-05T13:23:26.666Z,3.63
2023-03-05T13:26:00.622Z,3.47
2023-03-05T13:28:30.570Z,3.34
2023-03-05T13:31:00.519Z,3.07
2023-03-05T13:33:30.701Z,3.18
2023-03-05T13:35:58.750Z,2.95
2023-03-05T13:38:32.918Z,2.75
2023-03-05T13:41:21.125Z,2.62
2023-03-05T13:43:52.454Z,2.60
2023-03-05T13:46:28.765Z,2.48
2023-03-05T13:48:57.375Z,2.61
2023-03-05T13:51:25.781Z,3.02
2023-03-05T13:53:54.729Z,3.65
2023-03-05T13:56:22.872Z,3.56
2023-03-05T13:58:55.064Z,3.60
2023-03-05T14:01:29.984Z,3.51
2023-03-05T14:04:01.733Z,3.44
2023-03-05T14:06:31.160Z,3.46
2023-03-05T14:09:07.573Z,3.58
2023-03-05T14:11:36.522Z,3.71
2023-03-05T14:14:10.912Z,4.04
2023-03-05T14:16:39.103Z,3.12
2023-03-05T14:19:09.261Z,3.94
2023-03-05T14:21:48.538Z,3.61
2023-03-05T14:24:22.837Z,2.76
2023-03-05T14:26:53.563Z,3.16
2023-03-05T14:29:25.230Z,3.06
2023-03-05T14:31:55.934Z,2.36
2023-03-05T14:34:27.996Z,2.63
2023-03-05T14:37:00.278Z,2.49
2023-03-05T14:39:31.402Z,2.31
2023-03-05T14:42:15.806Z,2.10
2023-03-05T14:44:45.020Z,2.18
2023-03-05T14:47:12.981Z,2.09
2023-03-05T14:49:40.996Z,1.84
2023-03-05T14:52:13.167Z,1.86
2023-03-05T14:54:41.379Z,1.45
2023-03-05T14:57:14.279Z,1.59
2023-03-05T14:59:42.749Z,1.56
2023-03-05T15:02:18.904Z,1.50
2023-03-05T15:04:48.753Z,1.43
2023-03-05T15:07:22.094Z,1.33
2023-03-05T15:09:50.208Z,1.04
2023-03-05T15:12:18.671Z,1.05
2023-03-05T15:14:46.488Z,1.10
2023-03-05T15:17:22.079Z,1.24
2023-03-05T15:19:50.356Z,1.24
2023-03-05T15:22:18.898Z,1.21
2023-03-05T15:24:46.893Z,1.11
2023-03-05T15:27:14.891Z,0.61
2023-03-05T15:29:42.842Z,1.02
2023-03-05T15:32:11.154Z,0.91
2023-03-05T15:34:40.388Z,0.87
2023-03-05T15:37:08.762Z,1.07
2023-03-05T15:39:36.844Z,1.13
2023-03-05T15:42:06.386Z,1.13
2023-03-05T15:44:34.519Z,1.10
2023-03-05T15:47:02.495Z,1.01
2023-03-05T15:49:30.325Z,1.00
2023-03-05T15:51:59.938Z,1.01
2023-03-05T15:54:27.980Z,1.02
2023-03-05T15:56:55.943Z,0.98
2023-03-05T15:59:23.887Z,0.97
2023-03-05T16:01:52.856Z,0.97
2023-03-05T16:04:20.729Z,0.96
2023-03-05T16:06:51.075Z,0.96
2023-03-05T16:09:22.207Z,0.97
2023-03-05T16:11:51.595Z,0.88
2023-03-05T16:14:23.557Z,0.68
2023-03-05T16:16:54.279Z,0.76
2023-03-05T16:19:24.709Z,0.73
2023-03-05T16:21:52.809Z,0.69
2023-03-05T16:24:22.081Z,0.66
2023-03-05T16:26:50.026Z,0.38
2023-03-05T16:29:18.006Z,0.50
2023-03-05T16:31:46.898Z,0.22
2023-03-05T16:34:16.459Z,0.56
2023-03-05T16:36:50.340Z,0.55
2023-03-05T16:39:18.310Z,0.45
2023-03-05T16:41:47.694Z,0.27
2023-03-05T16:44:15.507Z,0.46
2023-03-05T16:46:49.267Z,0.47
2023-03-05T16:49:17.926Z,0.47
2023-03-05T16:51:45.751Z,0.47
2023-03-05T16:54:13.780Z,0.44
2023-03-05T16:56:41.710Z,0.40
2023-03-05T16:59:11.747Z,0.29
2023-03-05T17:01:39.876Z,0.36
2023-03-05T17:04:07.901Z,0.04
2023-03-05T17:06:35.785Z,0.30
2023-03-05T17:09:04.677Z,0.19
2023-03-05T17:11:32.895Z,0.26
2023-03-05T17:14:00.762Z,0.23
2023-03-05T17:16:30.119Z,0.17
2023-03-05T17:18:58.245Z,-0.27
2023-03-05T17:21:26.144Z,-0.08
2023-03-05T17:23:54.803Z,-0.20
2023-03-05T17:26:22.729Z,-0.38
2023-03-05T17:28:51.294Z,-0.36
2023-03-05T17:31:19.971Z,-0.49
2023-03-05T17:33:49.327Z,-0.55
2023-03-05T17:36:22.978Z,-0.81
2023-03-05T17:38:51.440Z,-0.82
2023-03-05T17:41:20.469Z,-1.07
2023-03-05T17:43:48.525Z,-1.02
2023-03-05T17:46:17.268Z,-1.50
2023-03-05T17:48:46.153Z,-0.99
2023-03-05T17:51:17.566Z,-1.45
2023-03-05T17:53:45.902Z,-1.01
2023-03-05T17:56:16.049Z,-1.04
2023-03-05T17:58:44.425Z,-1.05
2023-03-05T18:01:12.463Z,-1.05
2023-03-05T18:03:40.524Z,-1.30
2023-03-05T18:06:08.825Z,-1.25
2023-03-05T18:08:38.092Z,-1.59
2023-03-05T18:11:06.284Z,-1.22
2023-03-05T18:13:34.251Z,-1.20
2023-03-05T18:16:02.354Z,-1.20
2023-03-05T18:18:30.280Z,-1.19
2023-03-05T18:20:58.191Z,-1.69
2023-03-05T18:23:26.113Z,-1.25
2023-03-05T18:25:55.524Z,-1.28
2023-03-05T18:28:23.552Z,-1.31
2023-03-05T18:30:51.470Z,-1.32
2023-03-05T18:33:20.976Z,-1.34
2023-03-05T18:35:52.472Z,-1.35
2023-03-05T18:38:20.658Z,-1.35
2023-03-05T18:40:51.211Z,-1.34
2023-03-05T18:43:22.123Z,-1.32
2023-03-05T18:45:50.221Z,-1.51
2023-03-05T18:48:18.222Z,-1.30
2023-03-05T18:50:46.945Z,-1.28
2023-03-05T18:53:15.212Z,-1.26
2023-03-05T18:55:43.467Z,-1.23
2023-03-05T18:58:14.258Z,-1.23
2023-03-05T19:00:46.947Z,-1.24
2023-03-05T19:03:15.336Z,-1.23
2023-03-05T19:05:43.354Z,-1.24
2023-03-05T19:08:11.617Z,-1.23
2023-03-05T19:10:40.240Z,-1.23
2023-03-05T19:13:18.752Z,-1.22
2023-03-05T19:15:48.171Z,-1.22
2023-03-05T19:18:16.057Z,-1.21
2023-03-05T19:20:43.892Z,-1.20
2023-03-05T19:23:12.034Z,-1.30
2023-03-05T19:25:41.363Z,-1.24
2023-03-05T19:28:09.604Z,-1.25
2023-03-05T19:30:38.273Z,-1.27
2023-03-05T19:33:07.479Z,-1.27
2023-03-05T19:35:35.334Z,-1.27
2023-03-05T19:38:03.508Z,-1.27
2023-03-05T19:40:31.312Z,-1.31
2023-03-05T19:42:59.539Z,-1.35
2023-03-05T19:45:27.680Z,-1.40
2023-03-05T19:47:55.480Z,-1.45
2023-03-05T19:50:24.703Z,-1.51
2023-03-05T19:52:52.745Z,-1.54
2023-03-05T19:55:20.756Z,-1.63
2023-03-05T19:57:48.751Z,-1.61
2023-03-05T20:00:17.288Z,-1.56
2023-03-05T20:02:45.121Z,-1.53
2023-03-05T20:05:13.265Z,-1.51
2023-03-05T20:07:42.550Z,-1.72
2023-03-05T20:10:11.683Z,-1.48
2023-03-05T20:12:39.559Z,-1.47
2023-03-05T20:15:08.276Z,-1.46
2023-03-05T20:17:36.128Z,-1.44
2023-03-05T20:20:03.967Z,-1.59
2023-03-05T20:22:32.125Z,-1.49
2023-03-05T20:25:01.310Z,-1.59
2023-03-05T20:27:29.137Z,-1.55
2023-03-05T20:29:57.165Z,-1.50
2023-03-05T20:32:25.052Z,-1.50
2023-03-05T20:34:52.906Z,-1.50
2023-03-05T20:37:20.891Z,-2.33
2023-03-05T20:39:48.741Z,-1.53
2023-03-05T20:42:17.926Z,-1.53
2023-03-05T20:44:45.929Z,-1.54
2023-03-05T20:47:27.634Z,-1.57
2023-03-05T20:49:55.967Z,-1.64
2023-03-05T20:52:23.800Z,-1.81
2023-03-05T20:54:51.646Z,-1.84
2023-03-05T20:57:21.158Z,-1.96
2023-03-05T20:59:49.036Z,-2.01
2023-03-05T21:02:18.427Z,-2.01
2023-03-05T21:04:46.587Z,-2.04
2023-03-05T21:07:14.519Z,-2.11
2023-03-05T21:09:42.359Z,-2.15
2023-03-05T21:12:11.973Z,-2.15
2023-03-05T21:14:41.167Z,-2.13
2023-03-05T21:17:09.579Z,-2.36
2023-03-05T21:19:40.089Z,-2.12
2023-03-05T21:22:07.951Z,-2.13
2023-03-05T21:24:52.190Z,-2.24
2023-03-05T21:27:20.266Z,-2.27
2023-03-05T21:29:49.480Z,-2.34
2023-03-05T21:32:17.538Z,-2.41
2023-03-05T21:34:45.620Z,-2.49
2023-03-05T21:37:13.590Z,-2.57
2023-03-05T21:39:41.651Z,-2.66
2023-03-05T21:42:11.301Z,-2.73
2023-03-05T21:44:39.121Z,-2.77
2023-03-05T21:47:08.420Z,-2.82
2023-03-05T21:49:36.392Z,-2.87
2023-03-05T21:52:09.230Z,-2.89
2023-03-05T21:54:37.450Z,-2.96
2023-03-05T21:57:06.079Z,-3.02
2023-03-05T21:59:34.228Z,-3.39
2023-03-05T22:02:03.223Z,-3.10
2023-03-05T22:04:32.467Z,-3.13
2023-03-05T22:07:00.534Z,-3.19
2023-03-05T22:09:28.651Z,-3.20
2023-03-05T22:11:58.519Z,-3.22
2023-03-05T22:14:26.580Z,-3.22
2023-03-05T22:16:57.222Z,-3.78
2023-03-05T22:19:25.144Z,-3.22
2023-03-05T22:21:54.514Z,-3.60
2023-03-05T22:24:25.258Z,-3.24
2023-03-05T22:26:53.305Z,-3.29
2023-03-05T22:29:21.219Z,-3.21
2023-03-05T22:31:49.724Z,-3.18
2023-03-05T22:34:17.703Z,-3.17
2023-03-05T22:36:45.573Z,-3.18
2023-03-05T22:39:15.069Z,-3.19
2023-03-05T22:41:43.040Z,-3.19
2023-03-05T22:44:10.947Z,-3.25
2023-03-05T22:46:39.511Z,-3.18
2023-03-05T22:49:07.367Z,-3.25
2023-03-05T22:51:35.284Z,-3.17
2023-03-05T22:54:03.636Z,-3.45
2023-03-05T22:56:32.889Z,-3.23
2023-03-05T22:59:00.778Z,-3.25
2023-03-05T23:01:28.770Z,-3.31
2023-03-05T23:04:03.435Z,-3.25
2023-03-05T23:06:31.623Z,-3.39
2023-03-05T23:08:59.463Z,-3.32
2023-03-05T23:11:27.370Z,-3.37
2023-03-05T23:13:56.904Z,-3.50
2023-03-05T23:16:24.738Z,-3.47
2023-03-05T23:18:52.605Z,-3.54
2023-03-05T23:21:20.613Z,-3.60
2023-03-05T23:23:48.452Z,-3.65
2023-03-05T23:26:16.343Z,-3.70
2023-03-05T23:28:44.337Z,-3.73
2023-03-05T23:31:13.544Z,-4.36
2023-03-05T23:33:41.454Z,-3.83
2023-03-05T23:36:09.876Z,-3.88
2023-03-05T23:38:37.849Z,-3.92
2023-03-05T23:41:09.503Z,-3.98
2023-03-05T23:43:37.783Z,-4.03
2023-03-05T23:46:11.781Z,-4.08
2023-03-05T23:48:42.722Z,-4.11
2023-03-05T23:51:11.369Z,-4.23
2023-03-05T23:53:39.244Z,-4.16
2023-03-05T23:56:11.425Z,-4.19
2023-03-05T23:58:40.083Z,-4.22
